Time;durP1;ratioP1;P1;durP2;ratioP2;P2;SDS_P1;SDS_P2;PMS_P1;PMS_P2;Temp;Humidity;BMP_temperature;BMP_pressure;BME280_temperature;BME280_humidity;BME280_pressure;Samples;Min_cycle;Max_cycle;Signal;HPM_P1;HPM_P2
2023/01/14 00:00:53;;;;;;;14.23;2.15;;;;;;;11.44;57.42;101478.75;4999782;28;20034;-45
2023/01/14 00:03:19;;;;;;;12.80;2.08;;;;;;;11.33;58.34;101480.28;5003961;28;20053;-47
2023/01/14 00:05:54;;;;;;;15.00;2.47;;;;;;;11.27;58.11;101485.38;5003910;28;20473;-45
2023/01/14 00:08:19;;;;;;;17.83;2.17;;;;;;;11.44;58.32;101494.44;4999871;28;20138;-45
2023/01/14 00:10:45;;;;;;;12.80;2.33;;;;;;;11.15;58.88;101480.81;5003232;28;20125;-44
2023/01/14 00:13:10;;;;;;;14.38;2.30;;;;;;;11.49;58.11;101484.94;5000187;28;20405;-44
2023/01/14 00:15:35;;;;;;;13.63;2.03;;;;;;;11.37;58.39;101477.75;5004127;28;20542;-48
2023/01/14 00:18:01;;;;;;;22.17;2.33;;;;;;;11.35;58.35;101483.78;5000537;28;20034;-43
2023/01/14 00:20:27;;;;;;;16.80;2.60;;;;;;;11.26;58.96;101496.66;5004106;28;20033;-43
2023/01/14 00:22:53;;;;;;;18.25;2.67;;;;;;;11.30;59.17;101496.75;5000444;28;20041;-42
2023/01/14 00:25:19;;;;;;;16.45;2.33;;;;;;;11.52;58.41;101484.13;5003741;28;20038;-46
2023/01/14 00:27:45;;;;;;;16.08;2.30;;;;;;;11.33;58.91;101485.50;5004514;28;20061;-46
2023/01/14 00:30:10;;;;;;;11.57;2.03;;;;;;;11.59;58.38;101479.03;4999455;28;20084;-39
2023/01/14 00:32:36;;;;;;;18.25;2.42;;;;;;;11.03;59.41;101483.16;5002748;28;20049;-42
2023/01/14 00:35:01;;;;;;;15.38;2.03;;;;;;;11.28;59.27;101481.94;4997789;28;20045;-45
2023/01/14 00:37:26;;;;;;;17.15;2.53;;;;;;;10.93;60.97;101494.22;5003388;28;20040;-44
2023/01/14 00:39:52;;;;;;;17.35;2.75;;;;;;;11.38;59.80;101487.34;4999371;28;20108;-43
2023/01/14 00:42:17;;;;;;;17.75;2.40;;;;;;;11.36;59.95;101481.22;5002651;28;20447;-49
2023/01/14 00:44:42;;;;;;;18.90;2.58;;;;;;;11.27;60.17;101491.50;5055734;23;20503;-43
2023/01/14 00:47:07;;;;;;;15.93;2.60;;;;;;;11.32;60.05;101483.75;5026168;28;20037;-42
2023/01/14 00:49:33;;;;;;;15.20;2.38;;;;;;;11.43;60.53;101486.56;5025776;28;20037;-37
2023/01/14 00:52:00;;;;;;;18.88;2.88;;;;;;;11.39;60.00;101477.78;5021232;28;20073;-42
2023/01/14 00:54:26;;;;;;;12.90;2.72;;;;;;;11.26;61.09;101478.41;5020364;28;20033;-44
2023/01/14 00:56:51;;;;;;;18.73;2.50;;;;;;;11.10;61.82;101474.56;5026186;28;20466;-41
2023/01/14 00:59:19;;;;;;;22.42;2.97;;;;;;;11.13;61.77;101472.03;5019663;28;20478;-55
2023/01/14 01:01:45;;;;;;;23.02;3.10;;;;;;;11.26;61.78;101463.63;5021495;28;20500;-42
2023/01/14 01:04:10;;;;;;;21.05;2.75;;;;;;;11.21;61.70;101474.81;5024505;28;20040;-44
2023/01/14 01:06:35;;;;;;;13.70;2.53;;;;;;;11.14;62.17;101454.66;5023856;28;20025;-42
2023/01/14 01:09:01;;;;;;;17.05;2.67;;;;;;;11.00;62.66;101451.75;5022525;28;20057;-42
2023/01/14 01:11:27;;;;;;;11.75;2.50;;;;;;;11.13;62.42;101452.91;5023005;28;20061;-39
2023/01/14 01:13:54;;;;;;;16.48;2.60;;;;;;;10.98;62.41;101450.84;5024286;28;20038;-38
2023/01/14 01:16:23;;;;;;;11.82;2.90;;;;;;;10.98;62.59;101450.84;5019571;28;20030;-39
2023/01/14 01:18:50;;;;;;;15.43;2.60;;;;;;;11.17;62.01;101445.16;5023818;28;20053;-41
2023/01/14 01:21:16;;;;;;;19.73;2.50;;;;;;;11.11;62.44;101439.81;5022711;28;20069;-44
2023/01/14 01:23:43;;;;;;;19.80;2.63;;;;;;;11.30;61.91;101446.28;5022575;28;20033;-41
2023/01/14 01:26:17;;;;;;;15.30;2.80;;;;;;;11.35;61.47;101448.13;5021825;28;20029;-40
2023/01/14 01:28:47;;;;;;;16.05;3.13;;;;;;;11.14;62.10;101446.84;5021774;28;20132;-43
2023/01/14 01:31:13;;;;;;;19.80;2.92;;;;;;;10.98;62.06;101461.28;5023845;28;20121;-41
2023/01/14 01:33:39;;;;;;;18.52;2.80;;;;;;;10.85;63.23;101444.50;5042894;28;20132;-43
2023/01/14 01:36:12;;;;;;;19.85;2.40;;;;;;;11.16;62.36;101456.44;5041351;28;20048;-43
2023/01/14 01:38:38;;;;;;;18.20;2.83;;;;;;;11.18;62.05;101459.97;5045538;28;20028;-41
2023/01/14 01:41:04;;;;;;;13.32;2.42;;;;;;;11.26;61.58;101460.13;5040759;28;20278;-41
2023/01/14 01:43:31;;;;;;;16.08;2.83;;;;;;;11.17;61.98;101450.38;5045275;28;20040;-41
2023/01/14 01:45:57;;;;;;;16.17;2.80;;;;;;;11.24;61.66;101447.03;5042926;28;20458;-42
2023/01/14 01:48:25;;;;;;;19.30;2.78;;;;;;;11.13;61.69;101437.25;5043822;28;20029;-43
2023/01/14 01:50:59;;;;;;;22.27;2.75;;;;;;;11.09;62.16;101449.34;5045811;28;20040;-39
2023/01/14 01:53:26;;;;;;;15.40;2.55;;;;;;;11.01;62.07;101435.25;5024599;28;20115;-43
2023/01/14 01:55:55;;;;;;;13.85;2.35;;;;;;;10.96;62.54;101431.69;5044981;28;20045;-43
2023/01/14 01:58:21;;;;;;;15.35;2.47;;;;;;;10.92;62.43;101440.28;5044939;28;20036;-40
2023/01/14 02:00:47;;;;;;;18.15;2.97;;;;;;;10.79;63.08;101431.34;5040446;28;20033;-43
2023/01/14 02:03:19;;;;;;;19.95;2.60;;;;;;;10.71;63.61;101419.84;5041613;28;20037;-43
2023/01/14 02:05:46;;;;;;;18.17;2.42;;;;;;;10.67;63.92;101412.81;5044851;28;20029;-41
2023/01/14 02:08:11;;;;;;;15.65;2.60;;;;;;;10.56;64.37;101407.34;5042581;28;20119;-43
2023/01/14 02:10:46;;;;;;;19.13;2.45;;;;;;;10.58;64.47;101403.06;5045304;28;20116;-47
2023/01/14 02:13:59;;;;;;;16.73;2.28;;;;;;;10.70;64.20;101386.78;5046647;28;20067;-40
2023/01/14 02:16:43;;;;;;;17.05;2.40;;;;;;;10.53;64.99;101394.28;5034493;28;20123;-39
2023/01/14 02:19:13;;;;;;;17.83;2.35;;;;;;;10.32;65.41;101380.75;5045029;28;20045;-41
2023/01/14 02:22:22;;;;;;;14.90;2.30;;;;;;;10.49;65.53;101381.16;5045403;28;20033;-52
2023/01/14 02:24:50;;;;;;;16.88;2.60;;;;;;;10.41;65.99;101380.09;5043494;28;20052;-42
2023/01/14 02:27:18;;;;;;;15.60;2.50;;;;;;;10.53;65.44;101381.22;5041533;28;20043;-43
2023/01/14 02:29:49;;;;;;;16.83;2.70;;;;;;;10.22;66.30;101383.13;5048781;28;20044;-38
2023/01/14 02:32:45;;;;;;;17.23;2.35;;;;;;;10.50;65.39;101369.84;5040241;28;20041;-41
2023/01/14 02:35:10;;;;;;;18.10;2.65;;;;;;;10.35;65.97;101377.34;5044605;28;20112;-38
2023/01/14 02:37:54;;;;;;;18.88;2.67;;;;;;;10.27;66.21;101382.38;5044696;28;20037;-42
2023/01/14 02:40:28;;;;;;;15.85;2.33;;;;;;;10.43;66.39;101388.81;5046137;28;20037;-41
2023/01/14 02:46:33;;;;;;;16.20;2.97;;;;;;;9.87;68.11;101374.44;5046078;28;20170;-41
2023/01/14 02:49:00;;;;;;;18.38;2.47;;;;;;;10.24;66.94;101365.81;5044372;28;20029;-41
2023/01/14 02:51:26;;;;;;;20.25;3.10;;;;;;;10.08;67.59;101354.09;5045241;28;20041;-43
2023/01/14 02:53:51;;;;;;;17.13;3.50;;;;;;;10.30;66.77;101350.31;5047973;28;20032;-40
2023/01/14 02:56:17;;;;;;;15.88;2.58;;;;;;;10.34;66.75;101344.31;5048314;28;20033;-38
2023/01/14 02:59:20;;;;;;;25.48;3.28;;;;;;;10.20;66.57;101345.72;5041581;28;20059;-42
2023/01/14 03:02:09;;;;;;;18.33;3.15;;;;;;;10.45;65.76;101343.69;5046278;28;20411;-42
2023/01/14 03:04:52;;;;;;;22.92;2.90;;;;;;;9.98;67.08;101328.69;5046327;28;20032;-41
2023/01/14 03:07:29;;;;;;;22.05;2.92;;;;;;;10.40;65.69;101332.28;5046712;28;20439;-41
2023/01/14 03:10:07;;;;;;;19.25;2.85;;;;;;;10.32;65.95;101328.63;5047564;28;20048;-39
2023/01/14 03:12:40;;;;;;;20.92;3.20;;;;;;;10.17;65.88;101323.09;5048012;28;20065;-37
2023/01/14 03:15:21;;;;;;;19.08;2.70;;;;;;;10.40;65.03;101327.06;5046689;28;20576;-39
2023/01/14 03:17:57;;;;;;;16.02;2.92;;;;;;;10.09;65.89;101319.41;5044939;28;20357;-40
2023/01/14 03:20:30;;;;;;;18.73;3.75;;;;;;;10.41;65.15;101313.19;5046930;28;20072;-39
2023/01/14 03:23:00;;;;;;;15.15;2.63;;;;;;;10.28;65.55;101310.28;5043150;28;20036;-38
2023/01/14 03:25:28;;;;;;;16.50;2.65;;;;;;;10.51;64.43;101309.03;5047293;28;20427;-42
2023/01/14 03:27:57;;;;;;;20.88;2.95;;;;;;;10.32;64.85;101301.69;5043626;28;20063;-37
2023/01/14 03:30:30;;;;;;;25.63;3.58;;;;;;;10.48;64.66;101302.06;5046378;28;20083;-38
2023/01/14 03:33:01;;;;;;;19.00;3.17;;;;;;;10.58;64.61;101290.06;5044819;28;20147;-41
2023/01/14 03:35:33;;;;;;;17.55;3.05;;;;;;;10.52;64.52;101279.53;5045946;28;20029;-41
2023/01/14 03:38:06;;;;;;;15.68;2.63;;;;;;;10.29;65.45;101276.47;5047306;28;20116;-42
2023/01/14 03:40:34;;;;;;;16.48;3.05;;;;;;;10.48;64.60;101275.09;5043415;28;20033;-42
2023/01/14 03:43:06;;;;;;;27.27;3.60;;;;;;;10.49;64.59;101266.44;5043457;28;20044;-43
2023/01/14 03:45:36;;;;;;;19.52;3.40;;;;;;;10.31;65.15;101260.81;5044638;28;20048;-40
2023/01/14 03:48:02;;;;;;;20.35;3.47;;;;;;;10.01;66.31;101258.44;5041345;28;20029;-44
2023/01/14 03:50:43;;;;;;;22.80;3.10;;;;;;;10.27;65.96;101244.25;5046291;28;20037;-47
2023/01/14 03:53:35;;;;;;;21.88;3.42;;;;;;;10.32;65.48;101233.94;5047172;28;20044;-41
2023/01/14 03:56:12;;;;;;;20.73;3.47;;;;;;;10.47;64.95;101232.53;5047734;28;20407;-43
2023/01/14 03:58:41;;;;;;;25.20;3.78;;;;;;;10.33;65.65;101220.94;5043428;28;20036;-41
2023/01/14 04:01:13;;;;;;;19.92;3.80;;;;;;;10.32;65.72;101213.97;5046043;28;20029;-43
2023/01/14 04:03:39;;;;;;;24.52;3.65;;;;;;;10.35;65.79;101207.94;5042916;28;20052;-38
2023/01/14 04:06:05;;;;;;;21.00;3.88;;;;;;;10.31;66.23;101206.09;5047312;28;20041;-39
2023/01/14 04:08:31;;;;;;;21.88;3.70;;;;;;;10.42;66.33;101192.47;5042756;28;20060;-42
2023/01/14 04:10:56;;;;;;;23.55;4.18;;;;;;;10.33;67.08;101201.81;5045771;28;20037;-38
2023/01/14 04:16:05;;;;;;;24.67;4.13;;;;;;;10.39;67.13;101197.59;5046627;28;20497;-42
2023/01/14 04:18:30;;;;;;;20.02;3.58;;;;;;;10.59;66.75;101179.72;5040190;28;20025;-38
2023/01/14 04:20:56;;;;;;;22.23;4.63;;;;;;;10.46;67.29;101178.63;5044234;28;20534;-44
2023/01/14 04:23:21;;;;;;;22.38;4.05;;;;;;;10.52;67.40;101175.25;5046621;28;20116;-41
2023/01/14 04:25:46;;;;;;;22.98;3.90;;;;;;;10.34;67.97;101165.38;5043953;28;20045;-41
2023/01/14 04:28:12;;;;;;;23.98;3.58;;;;;;;10.58;67.60;101167.53;5044374;28;20048;-43
2023/01/14 04:30:37;;;;;;;27.27;4.10;;;;;;;10.43;67.68;101155.09;5043048;28;20041;-40
2023/01/14 04:33:03;;;;;;;23.08;3.90;;;;;;;10.44;67.93;101149.03;5040389;28;20193;-41
2023/01/14 04:35:28;;;;;;;21.52;3.70;;;;;;;10.57;67.78;101147.53;5042245;28;20423;-41
2023/01/14 04:37:54;;;;;;;21.95;3.78;;;;;;;10.49;67.95;101138.72;5041950;28;20060;-37
2023/01/14 04:40:21;;;;;;;29.80;3.65;;;;;;;10.61;67.39;101138.06;5041533;28;20495;-39
2023/01/14 04:42:47;;;;;;;24.52;3.42;;;;;;;10.52;68.17;101134.41;5042087;28;20037;-43
2023/01/14 04:45:12;;;;;;;20.98;3.38;;;;;;;10.45;68.32;101135.16;5046756;28;20037;-38
2023/01/14 04:47:38;;;;;;;21.60;3.70;;;;;;;10.57;67.68;101129.28;5045886;28;20136;-40
2023/01/14 04:50:30;;;;;;;22.95;3.55;;;;;;;10.42;68.80;101129.03;5045450;28;20411;-40
2023/01/14 04:52:50;;;;;;;21.10;3.50;;;;;;;10.34;68.64;101123.66;5041995;28;20097;-37
2023/01/14 04:55:16;;;;;;;20.10;3.40;;;;;;;10.58;68.42;101134.53;5046782;28;20025;-44
2023/01/14 04:57:41;;;;;;;26.13;3.42;;;;;;;10.41;68.38;101128.16;5044155;28;20044;-42
2023/01/14 05:00:08;;;;;;;23.63;4.10;;;;;;;10.53;68.50;101120.53;5047374;28;20041;-43
2023/01/14 05:02:34;;;;;;;26.27;3.92;;;;;;;10.26;68.96;101121.75;5043862;28;20056;-39
2023/01/14 05:04:59;;;;;;;19.38;3.17;;;;;;;10.33;68.81;101106.28;5043352;28;20467;-42
2023/01/14 05:07:24;;;;;;;19.67;3.58;;;;;;;10.43;68.40;101102.97;5047629;28;20491;-38
2023/01/14 05:09:50;;;;;;;17.23;3.00;;;;;;;10.53;68.13;101093.59;5045409;28;20040;-41
2023/01/14 05:12:15;;;;;;;19.65;2.90;;;;;;;10.70;67.49;101091.25;5042914;28;20041;-41
2023/01/14 05:14:40;;;;;;;22.48;2.78;;;;;;;10.44;67.59;101090.81;5048131;28;20103;-41
2023/01/14 05:17:05;;;;;;;22.40;3.15;;;;;;;10.55;67.83;101081.47;5041663;28;20427;-41
2023/01/14 05:19:31;;;;;;;21.05;3.17;;;;;;;10.56;67.62;101067.56;5045517;28;20057;-43
2023/01/14 05:21:56;;;;;;;15.73;2.90;;;;;;;10.64;67.45;101057.25;5042830;28;20067;-42
2023/01/14 05:24:21;;;;;;;20.13;2.70;;;;;;;10.65;67.78;101052.09;5045275;28;20041;-38
2023/01/14 05:26:47;;;;;;;16.23;2.92;;;;;;;10.56;67.95;101052.78;5044792;28;20061;-38
2023/01/14 05:29:12;;;;;;;18.65;3.03;;;;;;;10.42;68.01;101054.31;5045660;28;20123;-42
2023/01/14 05:31:37;;;;;;;17.58;3.08;;;;;;;10.87;66.64;101045.44;5041885;28;20040;-37
2023/01/14 05:34:03;;;;;;;16.70;2.70;;;;;;;10.73;66.72;101047.88;5045220;28;20037;-44
2023/01/14 05:36:29;;;;;;;21.58;2.88;;;;;;;10.69;67.13;101038.22;5045520;28;20078;-38
2023/01/14 05:38:54;;;;;;;19.60;3.20;;;;;;;10.97;66.41;101036.91;5045415;28;20036;-43
2023/01/14 05:41:19;;;;;;;19.77;3.10;;;;;;;10.80;66.88;101026.22;5044899;28;20052;-46
2023/01/14 05:46:28;;;;;;;21.40;2.95;;;;;;;10.78;67.30;101017.53;5049625;28;20094;-45
2023/01/14 05:48:54;;;;;;;17.20;2.78;;;;;;;10.82;67.40;101011.47;5049517;28;20430;-42
2023/01/14 05:51:19;;;;;;;16.17;2.70;;;;;;;10.85;67.33;101001.09;5044413;28;20043;-42
2023/01/14 05:53:44;;;;;;;17.02;2.85;;;;;;;10.85;67.06;101002.84;5049012;28;20502;-42
2023/01/14 05:56:09;;;;;;;18.73;2.97;;;;;;;10.75;67.25;100995.72;5047262;28;20049;-41
2023/01/14 05:58:35;;;;;;;17.13;2.72;;;;;;;10.75;66.75;100980.06;5048328;28;20033;-42
2023/01/14 06:06:37;;;;;;;18.23;2.80;;;;;;;10.86;67.14;100970.66;5046932;28;20394;-40
2023/01/14 06:09:08;;;;;;;15.50;2.83;;;;;;;10.65;67.26;100952.13;5048616;28;20438;-41
2023/01/14 06:11:33;;;;;;;15.80;2.80;;;;;;;10.68;67.50;100946.94;5046674;28;20044;-44
2023/01/14 06:14:00;;;;;;;18.10;3.25;;;;;;;10.57;68.01;100942.47;5048578;28;20033;-37
2023/01/14 06:16:27;;;;;;;18.77;2.60;;;;;;;10.68;67.74;100940.00;5045086;28;20396;-45
2023/01/14 06:18:53;;;;;;;18.02;2.85;;;;;;;10.53;67.91;100925.03;5046199;28;20505;-42
2023/01/14 06:21:22;;;;;;;13.73;2.63;;;;;;;10.72;67.80;100917.47;5044089;28;20487;-42
2023/01/14 06:23:48;;;;;;;17.23;2.47;;;;;;;10.86;67.43;100902.84;5044592;28;20029;-42
2023/01/14 06:26:16;;;;;;;16.17;2.60;;;;;;;10.91;67.56;100906.41;5047190;28;20054;-38
2023/01/14 06:28:42;;;;;;;15.77;2.67;;;;;;;10.42;68.95;100890.13;5048613;28;20417;-46
2023/01/14 06:31:13;;;;;;;16.83;2.67;;;;;;;10.60;68.83;100884.28;5044091;28;20115;-37
2023/01/14 06:33:39;;;;;;;16.85;2.33;;;;;;;10.63;68.64;100879.09;5045369;28;20519;-39
2023/01/14 06:36:06;;;;;;;14.15;2.88;;;;;;;10.46;68.98;100862.34;5044140;28;20462;-44
2023/01/14 06:38:32;;;;;;;16.05;2.92;;;;;;;10.30;69.48;100870.81;5049191;28;20112;-41
2023/01/14 06:40:58;;;;;;;20.80;2.95;;;;;;;10.49;69.70;100852.84;5050656;28;20120;-37
2023/01/14 06:43:24;;;;;;;13.00;2.45;;;;;;;10.71;68.82;100837.47;5047494;28;20048;-41
2023/01/14 06:45:56;;;;;;;12.93;2.45;;;;;;;10.53;68.79;100832.91;5053363;22;20103;-42
2023/01/14 06:48:22;;;;;;;18.05;2.85;;;;;;;10.52;69.24;100832.03;5044455;28;20033;-38
2023/01/14 06:50:48;;;;;;;15.88;2.70;;;;;;;10.49;69.89;100821.56;5039898;28;20368;-38
2023/01/14 06:53:13;;;;;;;14.82;2.95;;;;;;;10.74;69.14;100811.44;5044005;28;20040;-39
2023/01/14 06:55:39;;;;;;;19.42;3.00;;;;;;;10.69;69.08;100803.56;5044129;28;20038;-38
2023/01/14 06:58:04;;;;;;;18.23;2.88;;;;;;;10.68;69.93;100798.31;5040707;28;20037;-41
2023/01/14 07:00:29;;;;;;;14.63;2.67;;;;;;;10.67;69.73;100784.44;5043550;28;20157;-40
2023/01/14 07:02:55;;;;;;;12.63;2.70;;;;;;;10.71;69.72;100782.72;5041377;28;20130;-38
2023/01/14 07:05:20;;;;;;;15.55;3.22;;;;;;;10.67;69.81;100773.13;5045128;28;20044;-41
2023/01/14 07:07:49;;;;;;;19.23;3.50;;;;;;;10.41;70.28;100768.47;5045114;28;20029;-39
2023/01/14 07:10:16;;;;;;;15.40;3.20;;;;;;;10.55;70.82;100772.09;5040557;28;20087;-39
2023/01/14 07:12:50;;;;;;;14.90;3.00;;;;;;;10.72;70.28;100750.59;5044062;28;20044;-38
2023/01/14 07:15:18;;;;;;;17.40;3.30;;;;;;;10.46;70.43;100739.84;5041218;28;20037;-42
2023/01/14 07:17:47;;;;;;;13.55;2.90;;;;;;;10.63;70.55;100743.53;5044611;28;20128;-39
2023/01/14 07:20:13;;;;;;;18.67;3.78;;;;;;;10.76;70.14;100729.78;5041175;28;20033;-45
2023/01/14 07:22:39;;;;;;;17.65;3.80;;;;;;;10.57;70.99;100713.06;5043662;28;20094;-44
2023/01/14 07:25:05;;;;;;;18.17;4.30;;;;;;;10.62;70.94;100707.00;5041036;28;20032;-39
2023/01/14 07:27:31;;;;;;;14.18;4.50;;;;;;;10.57;71.16;100692.19;5046364;28;20495;-40
2023/01/14 07:29:57;;;;;;;16.20;3.78;;;;;;;10.63;71.52;100687.91;5042741;28;20056;-42
2023/01/14 07:32:23;;;;;;;16.13;4.72;;;;;;;10.51;71.73;100684.31;5045235;28;20573;-42
2023/01/14 07:34:49;;;;;;;15.70;4.68;;;;;;;10.39;72.22;100668.56;5042288;28;20056;-44
2023/01/14 07:37:14;;;;;;;15.45;4.90;;;;;;;10.67;71.48;100659.28;5026919;28;20127;-44
2023/01/14 07:39:39;;;;;;;13.88;4.53;;;;;;;10.56;71.72;100651.34;5044339;28;20380;-41
2023/01/14 07:42:05;;;;;;;11.43;4.38;;;;;;;10.30;73.37;100638.94;5039590;28;20044;-43
2023/01/14 07:44:31;;;;;;;15.77;5.05;;;;;;;10.32;73.38;100631.97;5043598;28;20116;-45
2023/01/14 07:46:57;;;;;;;11.85;4.63;;;;;;;10.36;72.97;100621.63;5040100;28;20067;-41
2023/01/14 07:49:23;;;;;;;14.95;4.97;;;;;;;10.67;72.11;100616.69;5043657;28;20071;-42
2023/01/14 07:51:49;;;;;;;10.98;4.47;;;;;;;10.63;72.36;100601.88;5039390;28;20415;-44
2023/01/14 07:54:15;;;;;;;10.90;4.53;;;;;;;10.49;72.82;100591.34;5043484;28;20036;-41
2023/01/14 07:56:40;;;;;;;13.50;4.88;;;;;;;10.47;72.91;100599.16;5043970;28;20131;-40
2023/01/14 07:59:06;;;;;;;11.15;4.53;;;;;;;10.72;72.67;100586.31;5040696;28;20115;-42
2023/01/14 08:01:32;;;;;;;11.25;4.40;;;;;;;10.69;73.04;100581.06;5041953;28;20102;-42
2023/01/14 08:03:58;;;;;;;10.48;4.82;;;;;;;10.40;73.82;100573.00;5039764;28;20033;-39
2023/01/14 08:06:24;;;;;;;13.90;4.68;;;;;;;10.63;73.38;100567.97;5043833;28;20033;-46
2023/01/14 08:08:49;;;;;;;12.20;4.75;;;;;;;10.75;73.25;100568.97;5040373;28;20637;-41
2023/01/14 08:11:14;;;;;;;12.40;4.85;;;;;;;10.49;74.64;100550.50;5043872;28;20291;-41
2023/01/14 08:13:39;;;;;;;12.98;5.38;;;;;;;10.50;74.19;100535.72;5043434;28;20068;-42
2023/01/14 08:16:05;;;;;;;12.23;4.97;;;;;;;10.50;74.70;100527.91;5039466;28;20036;-41
2023/01/14 08:18:31;;;;;;;9.80;4.85;;;;;;;10.82;73.31;100525.56;5043090;28;20067;-41
2023/01/14 08:21:03;;;;;;;10.18;5.00;;;;;;;10.77;73.79;100519.44;5038376;28;20029;-42
2023/01/14 08:23:29;;;;;;;9.43;5.07;;;;;;;10.87;73.96;100516.88;5043276;28;20448;-41
2023/01/14 08:26:01;;;;;;;9.90;4.85;;;;;;;10.99;73.78;100496.09;5039023;28;20032;-46
2023/01/14 08:28:28;;;;;;;12.43;5.03;;;;;;;10.90;74.11;100492.59;5043116;28;20092;-45
2023/01/14 08:31:04;;;;;;;9.73;4.85;;;;;;;10.92;74.12;100488.22;5038179;28;20033;-43
2023/01/14 08:33:29;;;;;;;8.77;4.60;;;;;;;10.82;74.84;100474.28;5042887;28;20036;-42
2023/01/14 08:35:54;;;;;;;8.27;4.65;;;;;;;11.21;73.91;100471.00;5038692;28;20120;-41
2023/01/14 08:38:20;;;;;;;10.27;4.57;;;;;;;11.16;73.65;100459.66;5042667;28;20116;-42
2023/01/14 08:40:48;;;;;;;9.45;4.32;;;;;;;11.11;74.36;100453.53;5041995;28;20032;-47
2023/01/14 08:43:13;;;;;;;7.90;4.45;;;;;;;11.07;73.76;100453.53;5039000;28;20029;-42
2023/01/14 08:45:39;;;;;;;11.25;4.30;;;;;;;11.10;74.65;100428.31;5042458;28;20146;-41
2023/01/14 08:48:04;;;;;;;8.95;4.25;;;;;;;10.84;75.78;100416.91;5020756;28;20561;-44
2023/01/14 08:50:30;;;;;;;9.50;4.20;;;;;;;11.32;74.30;100414.50;5042427;28;20120;-48
2023/01/14 08:52:55;;;;;;;10.90;4.22;;;;;;;11.15;74.81;100410.09;5040486;28;20044;-46
2023/01/14 08:55:21;;;;;;;10.38;4.25;;;;;;;11.27;74.57;100392.75;5043130;28;20041;-41
2023/01/14 08:57:46;;;;;;;8.75;3.97;;;;;;;11.42;73.93;100394.50;5043307;28;20029;-40
2023/01/14 09:00:12;;;;;;;8.23;4.00;;;;;;;11.48;74.30;100381.47;5042182;28;20090;-43
2023/01/14 09:02:37;;;;;;;8.85;3.90;;;;;;;10.94;75.60;100383.06;5044743;28;20041;-41
2023/01/14 09:05:03;;;;;;;11.75;3.58;;;;;;;10.99;76.04;100386.53;5040694;28;20123;-44
2023/01/14 09:18:24;;;;;;;7.93;3.00;;;;;;;11.38;75.20;100330.13;5038572;28;20094;-43
2023/01/14 09:20:49;;;;;;;7.97;3.20;;;;;;;11.30;75.11;100318.78;5041400;28;20041;-43
2023/01/14 09:23:15;;;;;;;11.18;3.08;;;;;;;11.51;74.72;100324.06;5046526;28;20491;-43
2023/01/14 09:25:40;;;;;;;7.93;2.65;;;;;;;11.64;74.00;100323.19;5046517;28;20522;-43
2023/01/14 09:28:05;;;;;;;9.38;2.70;;;;;;;11.27;75.38;100313.59;5042617;28;20098;-43
2023/01/14 09:30:31;;;;;;;8.85;2.60;;;;;;;11.43;74.92;100317.06;5046418;28;20411;-43
2023/01/14 09:32:56;;;;;;;10.00;2.60;;;;;;;11.58;74.54;100310.16;5045516;28;20041;-41
2023/01/14 09:35:21;;;;;;;10.90;2.83;;;;;;;11.59;74.34;100290.09;5048604;28;20033;-42
2023/01/14 09:37:47;;;;;;;7.82;2.50;;;;;;;11.48;74.91;100289.22;5049004;28;20060;-41
2023/01/14 09:40:13;;;;;;;7.22;2.55;;;;;;;11.37;75.77;100279.66;5045108;28;20060;-41
2023/01/14 09:42:41;;;;;;;8.70;2.50;;;;;;;11.60;74.68;100264.00;5048342;28;20295;-42
2023/01/14 09:45:12;;;;;;;12.55;2.40;;;;;;;11.78;73.97;100257.91;5043595;28;20029;-43
2023/01/14 09:47:38;;;;;;;5.53;2.38;;;;;;;11.72;74.43;100231.78;5049366;28;20045;-41
2023/01/14 09:50:08;;;;;;;6.05;2.10;;;;;;;11.70;74.69;100234.41;5046080;28;20033;-40
2023/01/14 09:53:01;;;;;;;6.38;1.98;;;;;;;11.72;74.74;100230.03;5049520;28;20112;-43
2023/01/14 09:55:36;;;;;;;6.35;2.00;;;;;;;11.38;75.88;100212.69;5046759;28;20052;-43
2023/01/14 09:58:23;;;;;;;6.07;1.85;;;;;;;11.83;74.77;100206.59;5045851;28;20095;-41
2023/01/14 10:01:03;;;;;;;7.45;2.08;;;;;;;11.88;74.66;100198.72;5044621;28;20047;-49
2023/01/14 10:03:32;;;;;;;6.10;1.80;;;;;;;11.71;74.95;100183.06;5048517;28;20083;-40
2023/01/14 10:06:12;;;;;;;6.15;1.85;;;;;;;11.91;74.37;100183.91;5044864;28;20128;-42
2023/01/14 10:08:43;;;;;;;6.13;2.10;;;;;;;11.67;75.62;100163.91;5049184;28;20092;-40
2023/01/14 10:11:09;;;;;;;7.57;1.80;;;;;;;11.73;75.18;100150.88;5044928;28;20075;-44
2023/01/14 10:13:39;;;;;;;6.65;1.95;;;;;;;11.74;75.85;100152.63;5049098;28;20580;-43
2023/01/14 10:16:09;;;;;;;5.50;2.08;;;;;;;11.71;76.04;100136.91;5045457;28;20052;-44
2023/01/14 10:18:56;;;;;;;6.03;2.10;;;;;;;11.56;76.93;100136.97;5049366;28;20047;-42
2023/01/14 10:22:07;;;;;;;6.25;1.90;;;;;;;11.74;76.40;100115.19;5045132;28;20060;-41
2023/01/14 10:24:32;;;;;;;6.18;1.88;;;;;;;11.55;77.31;100113.47;5034236;28;20502;-41
2023/01/14 10:26:58;;;;;;;5.00;1.90;;;;;;;11.47;76.94;100094.34;5044058;28;20120;-42
2023/01/14 10:29:28;;;;;;;4.40;1.73;;;;;;;11.74;76.82;100089.06;5047548;28;20041;-43
2023/01/14 10:31:57;;;;;;;6.80;1.60;;;;;;;11.62;77.62;100096.91;5046594;28;20029;-43
2023/01/14 10:34:42;;;;;;;5.80;1.80;;;;;;;11.67;77.48;100074.28;5044967;28;20093;-43
2023/01/14 10:37:08;;;;;;;8.07;2.17;;;;;;;11.64;78.01;100074.28;5043711;28;20033;-43
2023/01/14 10:39:34;;;;;;;6.07;2.03;;;;;;;12.03;76.55;100063.69;5046868;28;20039;-41
2023/01/14 10:42:01;;;;;;;5.57;2.17;;;;;;;11.59;77.75;100058.63;5041940;28;20136;-40
2023/01/14 10:44:30;;;;;;;7.22;1.90;;;;;;;11.88;76.97;100036.78;5046585;28;20052;-41
2023/01/14 10:47:18;;;;;;;5.60;1.73;;;;;;;11.71;77.50;100029.84;5043242;28;20128;-44
2023/01/14 10:49:55;;;;;;;2.88;1.50;;;;;;;11.90;77.43;100025.44;5046941;28;20040;-42
2023/01/14 10:52:23;;;;;;;4.80;2.17;;;;;;;11.97;77.17;100010.59;5042350;28;20048;-42
2023/01/14 10:54:59;;;;;;;5.47;1.80;;;;;;;12.16;77.08;100010.47;5044421;28;20064;-46
2023/01/14 10:57:26;;;;;;;2.95;1.80;;;;;;;11.95;77.95;100000.19;5046018;28;20037;-42
2023/01/14 10:59:53;;;;;;;5.97;2.30;;;;;;;12.06;77.41;99992.28;5041265;28;20481;-42
2023/01/14 11:02:32;;;;;;;6.40;2.20;;;;;;;12.23;77.54;99993.00;5043502;28;20032;-41
2023/01/14 11:04:58;;;;;;;3.42;2.00;;;;;;;12.29;76.39;99976.41;5041239;28;20480;-43
2023/01/14 11:07:31;;;;;;;3.92;2.00;;;;;;;12.06;77.83;99969.63;5044631;28;20147;-42
2023/01/14 11:09:59;;;;;;;4.40;2.20;;;;;;;11.82;78.77;99976.75;5040392;28;20561;-42
2023/01/14 11:12:27;;;;;;;4.20;2.20;;;;;;;12.04;78.22;99965.28;5043707;28;20059;-43
2023/01/14 11:14:53;;;;;;;4.13;2.22;;;;;;;12.41;76.79;99951.06;5040305;28;20068;-41
2023/01/14 11:17:27;;;;;;;5.68;2.50;;;;;;;12.31;77.91;99967.69;5044081;28;20061;-43
2023/01/14 11:20:19;;;;;;;7.45;2.70;;;;;;;12.18;78.13;99948.63;5040269;28;20158;-41
2023/01/14 11:22:44;;;;;;;8.15;2.60;;;;;;;11.99;78.69;99940.94;5043828;28;20167;-42
2023/01/14 11:25:21;;;;;;;9.20;4.10;;;;;;;12.57;76.85;99947.41;5040296;28;20490;-43
2023/01/14 11:27:48;;;;;;;8.10;2.83;;;;;;;12.54;76.52;99925.66;5044001;28;20044;-43
2023/01/14 11:30:17;;;;;;;4.68;2.65;;;;;;;12.37;77.37;99930.19;5040088;28;20041;-42
2023/01/14 11:32:49;;;;;;;6.78;3.75;;;;;;;12.56;76.21;99921.31;5043701;28;20037;-43
2023/01/14 11:35:30;;;;;;;5.40;2.40;;;;;;;12.18;78.47;99906.84;5039886;28;20029;-44
2023/01/14 11:37:56;;;;;;;5.47;2.50;;;;;;;12.54;77.62;99900.38;5039985;28;20061;-40
2023/01/14 11:41:28;;;;;;;7.03;2.40;;;;;;;12.47;77.56;99895.22;5024679;28;20033;-39
2023/01/14 11:43:13;;;;;;;8.30;2.65;;;;;;;11.98;78.66;99889.56;5038806;28;20037;-42
2023/01/14 11:45:38;;;;;;;6.03;3.17;;;;;;;12.55;77.65;99888.19;5043382;28;20052;-42
2023/01/14 11:48:22;;;;;;;5.93;2.65;;;;;;;12.62;77.52;99878.53;5039465;28;20036;-41
2023/01/14 11:50:59;;;;;;;6.03;2.70;;;;;;;12.59;77.32;99855.88;5042929;28;20550;-40
2023/01/14 11:53:26;;;;;;;5.32;3.28;;;;;;;12.85;76.75;99868.66;5039709;28;20036;-43